createdAt,value
2017-10-17T00:00:06.818Z,16.86
2017-10-17T00:02:32.595Z,16.89
2017-10-17T00:04:58.428Z,16.90
2017-10-17T00:07:24.215Z,16.84
2017-10-17T00:09:49.974Z,16.86
2017-10-17T00:12:15.756Z,16.88
2017-10-17T00:14:41.651Z,16.88
2017-10-17T00:17:07.422Z,16.84
2017-10-17T00:19:33.206Z,16.77
2017-10-17T00:21:59.002Z,16.77
2017-10-17T00:24:24.803Z,16.69
2017-10-17T00:26:50.612Z,16.73
2017-10-17T00:29:16.397Z,16.72
2017-10-17T00:31:42.355Z,16.75
2017-10-17T00:34:08.123Z,16.76
2017-10-17T00:36:33.891Z,16.70
2017-10-17T00:39:02.580Z,16.66
2017-10-17T00:41:28.414Z,16.67
2017-10-17T00:43:54.179Z,16.63
2017-10-17T00:46:19.995Z,16.68
2017-10-17T00:48:45.760Z,16.66
2017-10-17T00:51:21.509Z,16.66
2017-10-17T00:53:47.392Z,16.63
2017-10-17T00:56:13.163Z,16.56
2017-10-17T00:58:38.976Z,16.45
2017-10-17T01:01:04.913Z,16.25
2017-10-17T01:03:30.784Z,16.19
2017-10-17T01:05:56.647Z,16.13
2017-10-17T01:08:22.423Z,16.10
2017-10-17T01:10:48.207Z,15.96
2017-10-17T01:13:13.979Z,15.86
2017-10-17T01:15:39.854Z,15.83
2017-10-17T01:18:05.660Z,15.69
2017-10-17T01:20:32.402Z,15.49
2017-10-17T01:22:58.151Z,15.51
2017-10-17T01:25:24.049Z,15.54
2017-10-17T01:27:51.847Z,15.59
2017-10-17T01:30:17.666Z,15.55
2017-10-17T01:32:43.483Z,15.42
2017-10-17T01:35:09.278Z,15.46
2017-10-17T01:37:35.099Z,15.52
2017-10-17T01:42:52.671Z,15.38
2017-10-17T01:45:21.291Z,15.27
2017-10-17T01:47:48.027Z,15.15
2017-10-17T01:50:17.628Z,15.09
2017-10-17T01:52:43.399Z,15.08
2017-10-17T01:55:09.180Z,14.96
2017-10-17T01:57:44.912Z,14.85
2017-10-17T02:00:16.555Z,14.74
2017-10-17T02:02:42.353Z,14.66
2017-10-17T02:05:08.157Z,14.61
2017-10-17T02:07:34.007Z,14.55
2017-10-17T02:12:56.402Z,14.52
2017-10-17T02:15:22.235Z,14.51
2017-10-17T02:17:50.955Z,14.54
2017-10-17T02:20:16.781Z,14.58
2017-10-17T02:22:42.580Z,14.54
2017-10-17T02:25:09.135Z,14.53
2017-10-17T02:27:34.939Z,14.51
2017-10-17T02:30:20.676Z,14.49
2017-10-17T02:32:46.513Z,14.49
2017-10-17T02:35:18.174Z,14.57
2017-10-17T02:37:44.045Z,14.58
2017-10-17T02:40:09.952Z,14.71
2017-10-17T02:42:35.727Z,14.80
2017-10-17T02:45:01.614Z,14.72
2017-10-17T02:47:30.295Z,14.68
2017-10-17T02:49:56.124Z,14.65
2017-10-17T02:55:13.659Z,14.28
2017-10-17T02:57:39.473Z,14.22
2017-10-17T03:00:05.255Z,14.07
2017-10-17T03:02:44.979Z,13.92
2017-10-17T03:05:22.555Z,13.79
2017-10-17T03:07:48.347Z,13.74
2017-10-17T03:10:14.166Z,13.69
2017-10-17T03:12:40.009Z,13.68
2017-10-17T03:15:35.717Z,13.66
2017-10-17T03:18:09.399Z,13.59
2017-10-17T03:20:35.182Z,13.56
2017-10-17T03:23:05.760Z,13.56
2017-10-17T03:25:31.565Z,13.56
2017-10-17T03:27:59.279Z,13.51
2017-10-17T03:30:25.116Z,13.40
2017-10-17T03:32:50.888Z,13.39
2017-10-17T03:35:16.743Z,13.33
2017-10-17T03:41:05.867Z,13.18
2017-10-17T03:43:46.507Z,13.20
2017-10-17T03:46:12.300Z,13.19
2017-10-17T03:48:38.063Z,13.14
2017-10-17T03:51:06.727Z,13.12
2017-10-17T03:56:27.189Z,13.12
2017-10-17T03:58:53.835Z,13.06
2017-10-17T04:01:20.411Z,12.90
2017-10-17T04:03:53.895Z,12.83
2017-10-17T04:06:41.849Z,12.69
2017-10-17T04:09:07.674Z,12.57
2017-10-17T04:11:33.438Z,12.57
2017-10-17T04:14:07.179Z,12.47
2017-10-17T04:16:37.916Z,12.44
2017-10-17T04:22:27.424Z,12.35
2017-10-17T04:25:03.087Z,12.25
2017-10-17T04:27:33.876Z,12.05
2017-10-17T04:36:14.459Z,11.99
2017-10-17T04:38:40.254Z,11.94
2017-10-17T04:41:10.932Z,11.94
2017-10-17T04:46:37.839Z,11.97
2017-10-17T04:49:14.474Z,11.95
2017-10-17T04:51:46.498Z,11.88
2017-10-17T04:54:28.364Z,11.79
2017-10-17T04:56:59.886Z,11.81
2017-10-17T04:59:42.696Z,11.79
2017-10-17T05:02:31.235Z,11.82
2017-10-17T05:04:57.023Z,11.78
2017-10-17T05:07:29.670Z,11.85
2017-10-17T05:10:00.327Z,11.80
2017-10-17T05:12:32.954Z,11.64
2017-10-17T05:14:58.764Z,11.62
2017-10-17T05:17:30.344Z,11.60
2017-10-17T05:20:11.992Z,11.25
2017-10-17T05:22:41.714Z,11.16
2017-10-17T05:25:16.515Z,11.19
2017-10-17T05:30:56.907Z,11.19
2017-10-17T05:36:32.399Z,11.15
2017-10-17T05:38:58.162Z,11.25
2017-10-17T05:41:24.074Z,11.29
2017-10-17T05:43:49.871Z,11.36
2017-10-17T05:46:15.667Z,11.34
2017-10-17T05:48:42.229Z,11.36
2017-10-17T05:51:08.015Z,11.42
2017-10-17T05:53:33.764Z,11.42
2017-10-17T05:55:59.520Z,11.43
2017-10-17T05:58:25.299Z,11.46
2017-10-17T06:00:51.052Z,11.39
2017-10-17T06:03:16.847Z,11.27
2017-10-17T06:05:42.587Z,11.32
2017-10-17T06:08:08.335Z,11.38
2017-10-17T06:10:34.104Z,11.34
2017-10-17T06:12:59.875Z,11.29
2017-10-17T06:15:25.631Z,11.27
2017-10-17T06:17:51.363Z,11.28
2017-10-17T06:20:17.147Z,11.18
2017-10-17T06:22:42.917Z,11.34
2017-10-17T06:25:08.691Z,11.47
2017-10-17T06:27:34.431Z,11.60
2017-10-17T06:30:00.206Z,11.64
2017-10-17T06:32:25.953Z,11.55
2017-10-17T06:34:51.697Z,11.62
2017-10-17T06:37:17.472Z,11.62
2017-10-17T06:39:43.234Z,11.58
2017-10-17T06:42:08.971Z,11.65
2017-10-17T06:44:34.740Z,11.63
2017-10-17T06:47:00.478Z,11.72
2017-10-17T06:49:26.275Z,12.55
2017-10-17T06:51:52.059Z,13.53
2017-10-17T06:54:17.915Z,14.50
2017-10-17T06:56:43.723Z,15.69
2017-10-17T06:59:09.488Z,16.76
2017-10-17T07:01:35.296Z,17.48
2017-10-17T07:04:01.056Z,18.32
2017-10-17T07:06:26.843Z,19.32
2017-10-17T07:08:52.636Z,20.07
2017-10-17T07:11:18.395Z,20.84
2017-10-17T07:13:44.179Z,21.16
2017-10-17T07:16:09.952Z,21.53
2017-10-17T07:18:35.903Z,21.98
2017-10-17T07:21:01.667Z,21.98
2017-10-17T07:23:27.475Z,22.07
2017-10-17T07:25:53.251Z,22.47
2017-10-17T07:28:19.027Z,22.99
2017-10-17T07:30:44.784Z,22.48
2017-10-17T07:33:10.546Z,23.05
2017-10-17T07:35:36.297Z,22.86
2017-10-17T07:38:02.089Z,22.87
2017-10-17T07:40:27.843Z,23.46
2017-10-17T07:42:53.611Z,24.45
2017-10-17T07:45:19.396Z,24.60
2017-10-17T07:47:45.189Z,25.50
2017-10-17T07:50:10.984Z,26.62
2017-10-17T07:52:36.740Z,27.15
2017-10-17T07:55:02.543Z,26.33
2017-10-17T07:57:28.323Z,26.01
2017-10-17T07:59:54.062Z,26.60
2017-10-17T08:02:19.833Z,27.00
2017-10-17T08:04:45.647Z,26.74
2017-10-17T08:07:11.431Z,26.65
2017-10-17T08:09:37.251Z,27.16
2017-10-17T08:12:03.012Z,28.04
2017-10-17T08:14:28.813Z,28.68
2017-10-17T08:16:54.610Z,29.26
2017-10-17T08:19:20.388Z,28.69
2017-10-17T08:21:46.123Z,28.97
2017-10-17T08:24:11.882Z,29.40
2017-10-17T08:26:37.650Z,29.85
2017-10-17T08:29:03.386Z,30.15
2017-10-17T08:31:29.154Z,30.48
2017-10-17T08:33:54.916Z,29.85
2017-10-17T08:36:20.671Z,30.17
2017-10-17T08:38:46.482Z,29.41
2017-10-17T08:41:12.238Z,29.29
2017-10-17T08:43:37.999Z,29.14
2017-10-17T08:46:03.755Z,29.32
2017-10-17T08:48:29.527Z,29.41
2017-10-17T08:50:55.407Z,29.40
2017-10-17T08:53:21.207Z,29.33
2017-10-17T08:55:46.972Z,29.16
2017-10-17T08:58:12.756Z,29.03
2017-10-17T09:00:38.520Z,29.01
2017-10-17T09:03:04.291Z,28.96
2017-10-17T09:05:30.051Z,29.32
2017-10-17T09:07:55.831Z,29.76
2017-10-17T09:10:21.575Z,29.93
2017-10-17T09:12:47.335Z,29.81
2017-10-17T09:15:13.099Z,30.45
2017-10-17T09:17:38.868Z,30.02
2017-10-17T09:20:04.624Z,29.53
2017-10-17T09:22:30.406Z,29.54
2017-10-17T09:24:56.160Z,29.66
2017-10-17T09:27:21.915Z,29.34
2017-10-17T09:29:47.678Z,30.21
2017-10-17T09:32:13.412Z,31.00
2017-10-17T09:34:39.215Z,31.62
2017-10-17T09:37:05.008Z,32.28
2017-10-17T09:39:30.766Z,32.81
2017-10-17T09:41:56.514Z,33.16
2017-10-17T09:44:22.307Z,32.60
2017-10-17T09:46:48.060Z,32.75
2017-10-17T09:49:13.822Z,33.27
2017-10-17T09:51:39.604Z,33.06
2017-10-17T09:54:05.362Z,32.28
2017-10-17T09:56:31.131Z,32.30
2017-10-17T09:58:56.911Z,32.59
2017-10-17T10:01:22.679Z,32.84
2017-10-17T10:03:48.456Z,31.95
2017-10-17T10:06:14.236Z,31.63
2017-10-17T10:08:39.975Z,31.34
2017-10-17T10:11:05.731Z,31.40
2017-10-17T10:13:31.496Z,31.76
2017-10-17T10:15:57.242Z,31.27
2017-10-17T10:18:23.015Z,29.66
2017-10-17T10:20:48.782Z,28.86
2017-10-17T10:23:14.595Z,28.75
2017-10-17T10:25:40.350Z,29.30
2017-10-17T10:28:06.107Z,29.10
2017-10-17T10:30:31.875Z,29.00
2017-10-17T10:32:57.642Z,29.66
2017-10-17T10:35:23.393Z,30.88
2017-10-17T10:37:49.139Z,31.23
2017-10-17T10:40:14.883Z,31.22
2017-10-17T10:42:40.647Z,30.78
2017-10-17T10:45:06.423Z,30.10
2017-10-17T10:47:32.172Z,29.10
2017-10-17T10:49:57.909Z,28.86
2017-10-17T10:52:23.667Z,29.44
2017-10-17T10:54:49.446Z,29.37
2017-10-17T10:57:15.188Z,29.80
2017-10-17T10:59:40.945Z,29.84
2017-10-17T11:02:06.723Z,29.12
2017-10-17T11:04:32.499Z,29.21
2017-10-17T11:06:58.279Z,29.50
2017-10-17T11:09:24.049Z,29.98
2017-10-17T11:11:49.835Z,30.51
2017-10-17T11:14:15.571Z,29.99
2017-10-17T11:16:41.334Z,30.39
2017-10-17T11:19:07.114Z,31.35
2017-10-17T11:21:32.873Z,31.54
2017-10-17T11:23:58.624Z,31.70
2017-10-17T11:26:24.399Z,30.92
2017-10-17T11:28:50.158Z,31.33
2017-10-17T11:31:15.932Z,31.73
2017-10-17T11:33:41.718Z,32.07
2017-10-17T11:36:07.480Z,32.56
2017-10-17T11:38:33.257Z,32.77
2017-10-17T11:41:11.453Z,32.76
2017-10-17T11:43:49.489Z,32.99
2017-10-17T11:46:15.260Z,33.49
2017-10-17T11:48:41.022Z,33.33
2017-10-17T11:51:06.811Z,33.24
2017-10-17T11:53:32.560Z,32.82
2017-10-17T11:55:58.352Z,32.41
2017-10-17T11:58:24.134Z,31.98
2017-10-17T12:00:49.987Z,31.66
2017-10-17T12:03:15.845Z,31.65
2017-10-17T12:05:41.651Z,31.69
2017-10-17T12:08:07.397Z,31.86
2017-10-17T12:10:33.187Z,31.92
2017-10-17T12:12:58.979Z,31.94
2017-10-17T12:15:24.734Z,31.85
2017-10-17T12:17:50.497Z,31.92
2017-10-17T12:20:16.279Z,32.09
2017-10-17T12:22:42.046Z,32.12
2017-10-17T12:25:07.828Z,32.03
2017-10-17T12:27:33.606Z,32.21
2017-10-17T12:29:59.359Z,32.42
2017-10-17T12:32:25.152Z,32.66
2017-10-17T12:34:50.973Z,32.45
2017-10-17T12:37:16.747Z,32.51
2017-10-17T12:39:42.531Z,32.60
2017-10-17T12:42:08.309Z,32.29
2017-10-17T12:44:34.101Z,32.11
2017-10-17T12:46:59.864Z,32.38
2017-10-17T12:49:25.602Z,32.29
2017-10-17T12:51:51.360Z,32.21
2017-10-17T12:54:17.136Z,32.47
2017-10-17T12:56:42.915Z,32.61
2017-10-17T12:59:08.691Z,32.58
2017-10-17T13:01:34.460Z,32.43
2017-10-17T13:04:00.244Z,32.56
2017-10-17T13:06:26.056Z,32.74
2017-10-17T13:08:51.841Z,32.71
2017-10-17T13:11:17.611Z,32.40
2017-10-17T13:13:43.359Z,32.32
2017-10-17T13:16:09.161Z,32.53
2017-10-17T13:18:34.940Z,32.66
2017-10-17T13:21:00.718Z,32.64
2017-10-17T13:23:26.479Z,32.51
2017-10-17T13:25:52.291Z,32.34
2017-10-17T13:28:18.079Z,32.23
2017-10-17T13:30:43.827Z,32.34
2017-10-17T13:33:09.603Z,32.46
2017-10-17T13:35:35.362Z,32.39
2017-10-17T13:38:01.144Z,32.53
2017-10-17T13:40:26.905Z,32.59
2017-10-17T13:42:52.683Z,32.48
2017-10-17T13:45:18.460Z,32.45
2017-10-17T13:47:44.239Z,32.47
2017-10-17T13:50:09.996Z,32.38
2017-10-17T13:52:35.727Z,32.26
2017-10-17T13:55:01.517Z,31.96
2017-10-17T13:57:27.268Z,32.10
2017-10-17T13:59:53.067Z,31.91
2017-10-17T14:02:18.827Z,31.94
2017-10-17T14:04:44.590Z,32.08
2017-10-17T14:07:10.344Z,32.04
2017-10-17T14:09:36.147Z,31.91
2017-10-17T14:12:01.955Z,31.98
2017-10-17T14:14:27.746Z,31.91
2017-10-17T14:16:53.511Z,31.93
2017-10-17T14:19:19.316Z,31.86
2017-10-17T14:21:45.072Z,31.57
2017-10-17T14:24:10.851Z,31.48
2017-10-17T14:26:36.599Z,31.60
2017-10-17T14:29:02.355Z,31.63
2017-10-17T14:31:28.123Z,31.64
2017-10-17T14:33:54.040Z,31.66
2017-10-17T14:36:19.831Z,31.40
2017-10-17T14:38:45.586Z,31.41
2017-10-17T14:41:11.358Z,31.47
2017-10-17T14:43:37.103Z,31.36
2017-10-17T14:46:02.846Z,31.27
2017-10-17T14:48:28.607Z,31.04
2017-10-17T14:50:54.392Z,30.93
2017-10-17T14:53:20.169Z,31.00
2017-10-17T14:55:45.919Z,31.06
2017-10-17T14:58:11.691Z,30.94
2017-10-17T15:00:37.475Z,30.90
2017-10-17T15:03:03.240Z,30.97
2017-10-17T15:05:29.019Z,30.89
2017-10-17T15:07:54.771Z,30.68
2017-10-17T15:10:20.527Z,30.71
2017-10-17T15:12:46.295Z,30.65
2017-10-17T15:15:12.043Z,30.71
2017-10-17T15:17:37.843Z,30.69
2017-10-17T15:20:03.595Z,30.68
2017-10-17T15:22:29.427Z,30.64
2017-10-17T15:24:55.167Z,30.58
2017-10-17T15:27:20.935Z,30.54
2017-10-17T15:29:46.692Z,30.43
2017-10-17T15:32:12.456Z,30.29
2017-10-17T15:34:38.195Z,30.20
2017-10-17T15:37:04.112Z,30.06
2017-10-17T15:39:29.927Z,29.98
2017-10-17T15:41:55.711Z,29.87
2017-10-17T15:44:21.451Z,29.69
2017-10-17T15:46:47.191Z,29.45
2017-10-17T15:49:13.008Z,29.25
2017-10-17T15:51:38.767Z,29.12
2017-10-17T15:54:04.508Z,28.89
2017-10-17T15:56:30.327Z,28.68
2017-10-17T15:58:56.129Z,28.58
2017-10-17T16:01:21.929Z,28.55
2017-10-17T16:03:47.703Z,28.24
2017-10-17T16:06:13.532Z,28.05
2017-10-17T16:08:39.284Z,27.81
2017-10-17T16:11:05.048Z,27.35
2017-10-17T16:13:30.821Z,27.02
2017-10-17T16:15:56.587Z,26.62
2017-10-17T16:18:22.420Z,26.17
2017-10-17T16:20:48.172Z,25.80
2017-10-17T16:23:13.936Z,25.44
2017-10-17T16:25:39.700Z,25.06
2017-10-17T16:28:05.484Z,24.46
2017-10-17T16:30:31.250Z,24.02
2017-10-17T16:32:56.998Z,23.75
2017-10-17T16:35:22.783Z,23.54
2017-10-17T16:37:48.559Z,23.44
2017-10-17T16:40:14.310Z,23.14
2017-10-17T16:42:40.103Z,22.81
2017-10-17T16:45:05.851Z,22.63
2017-10-17T16:47:31.599Z,22.45
2017-10-17T16:49:57.403Z,22.33
2017-10-17T16:52:23.151Z,22.15
2017-10-17T16:54:48.923Z,21.99
2017-10-17T16:57:14.702Z,21.71
2017-10-17T16:59:40.507Z,21.66
2017-10-17T17:02:06.295Z,21.45
2017-10-17T17:04:32.087Z,21.34
2017-10-17T17:06:57.844Z,21.07
2017-10-17T17:09:23.651Z,21.00
2017-10-17T17:11:49.400Z,20.83
2017-10-17T17:14:15.159Z,20.82
2017-10-17T17:16:40.930Z,20.66
2017-10-17T17:19:06.724Z,20.55
2017-10-17T17:21:32.492Z,20.40
2017-10-17T17:23:58.239Z,20.30
2017-10-17T17:26:24.023Z,20.17
2017-10-17T17:28:49.774Z,19.92
2017-10-17T17:31:15.558Z,19.74
2017-10-17T17:33:41.402Z,19.63
2017-10-17T17:36:07.148Z,19.54
2017-10-17T17:38:32.935Z,19.39
2017-10-17T17:40:58.683Z,19.36
2017-10-17T17:43:24.447Z,19.35
2017-10-17T17:45:50.199Z,19.34
2017-10-17T17:48:15.963Z,19.26
2017-10-17T17:50:41.760Z,19.13
2017-10-17T17:53:07.598Z,19.02
2017-10-17T17:55:33.353Z,18.90
2017-10-17T17:57:59.119Z,18.81
2017-10-17T18:00:24.917Z,18.78
2017-10-17T18:02:50.679Z,18.81
2017-10-17T18:05:16.452Z,18.74
2017-10-17T18:07:42.204Z,18.66
2017-10-17T18:10:07.984Z,18.63
2017-10-17T18:12:33.711Z,18.51
2017-10-17T18:14:59.495Z,18.35
2017-10-17T18:17:25.256Z,18.39
2017-10-17T18:19:51.012Z,18.28
2017-10-17T18:22:18.230Z,18.14
2017-10-17T18:24:44.077Z,18.07
2017-10-17T18:27:09.855Z,18.04
2017-10-17T18:29:35.665Z,17.96
2017-10-17T18:32:01.417Z,17.96
2017-10-17T18:34:27.181Z,17.92
2017-10-17T18:36:52.931Z,17.88
2017-10-17T18:39:18.721Z,17.80
2017-10-17T18:41:44.469Z,17.70
2017-10-17T18:44:10.231Z,17.53
2017-10-17T18:46:36.049Z,17.51
2017-10-17T18:49:01.856Z,17.51
2017-10-17T18:51:27.714Z,17.52
2017-10-17T18:53:53.540Z,17.43
2017-10-17T18:56:19.331Z,17.45
2017-10-17T18:58:45.191Z,17.33
2017-10-17T19:01:10.956Z,17.24
2017-10-17T19:03:36.715Z,17.15
2017-10-17T19:06:02.600Z,17.18
2017-10-17T19:08:28.466Z,17.18
2017-10-17T19:10:54.226Z,17.08
2017-10-17T19:13:20.065Z,17.02
2017-10-17T19:15:45.939Z,16.98
2017-10-17T19:18:11.783Z,16.90
2017-10-17T19:20:37.551Z,16.82
2017-10-17T19:23:03.456Z,16.69
2017-10-17T19:25:29.199Z,16.63
2017-10-17T19:27:54.930Z,16.69
2017-10-17T19:30:20.695Z,16.74
2017-10-17T19:32:46.435Z,16.72
2017-10-17T19:35:12.213Z,16.67
2017-10-17T19:37:38.058Z,16.62
2017-10-17T19:40:03.827Z,16.62
2017-10-17T19:42:29.579Z,16.60
2017-10-17T19:44:55.359Z,16.48
2017-10-17T19:47:21.120Z,16.43
2017-10-17T19:49:46.871Z,16.23
2017-10-17T19:52:12.657Z,16.21
2017-10-17T19:54:38.420Z,16.19
2017-10-17T19:57:04.199Z,16.12
2017-10-17T19:59:29.964Z,16.14
2017-10-17T20:01:55.735Z,16.11
2017-10-17T20:04:21.552Z,16.06
2017-10-17T20:06:47.307Z,16.09
2017-10-17T20:09:13.200Z,16.08
2017-10-17T20:11:38.946Z,16.02
2017-10-17T20:14:04.707Z,15.92
2017-10-17T20:16:30.473Z,15.85
2017-10-17T20:18:56.252Z,15.72
2017-10-17T20:21:22.120Z,15.63
2017-10-17T20:23:47.931Z,15.57
2017-10-17T20:26:13.759Z,15.69
2017-10-17T20:28:39.616Z,15.76
2017-10-17T20:31:05.403Z,15.70
2017-10-17T20:33:31.223Z,15.70
2017-10-17T20:35:57.014Z,15.69
2017-10-17T20:38:22.808Z,15.70
2017-10-17T20:40:48.620Z,15.61
2017-10-17T20:43:14.388Z,15.51
2017-10-17T20:45:40.145Z,15.37
2017-10-17T20:48:05.944Z,15.37
2017-10-17T20:50:31.714Z,15.39
2017-10-17T20:52:57.523Z,15.39
2017-10-17T20:55:23.312Z,15.39
2017-10-17T20:57:49.071Z,15.32
2017-10-17T21:00:14.906Z,15.29
2017-10-17T21:02:40.688Z,15.19
2017-10-17T21:05:06.424Z,15.01
2017-10-17T21:07:32.218Z,14.95
2017-10-17T21:09:57.953Z,14.90
2017-10-17T21:12:23.703Z,14.82
2017-10-17T21:14:49.478Z,14.82
2017-10-17T21:17:15.259Z,14.74
2017-10-17T21:19:41.027Z,14.67
2017-10-17T21:22:06.815Z,14.61
2017-10-17T21:24:32.563Z,14.64
2017-10-17T21:26:58.388Z,14.66
2017-10-17T21:29:24.163Z,14.74
2017-10-17T21:31:49.944Z,14.72
2017-10-17T21:34:15.717Z,14.76
2017-10-17T21:36:41.501Z,14.78
2017-10-17T21:39:07.255Z,14.66
2017-10-17T21:41:33.031Z,14.53
2017-10-17T21:43:58.831Z,14.39
2017-10-17T21:49:05.540Z,14.48
2017-10-17T21:51:31.317Z,14.41
2017-10-17T21:53:57.076Z,14.41
2017-10-17T21:56:22.844Z,14.45
2017-10-17T21:58:48.599Z,14.39
2017-10-17T22:01:14.402Z,14.34
2017-10-17T22:03:40.167Z,14.16
2017-10-17T22:06:05.919Z,14.23
2017-10-17T22:08:31.748Z,14.24
2017-10-17T22:10:57.501Z,14.16
2017-10-17T22:13:23.267Z,14.10
2017-10-17T22:15:49.028Z,14.08
2017-10-17T22:18:14.798Z,14.11
2017-10-17T22:20:40.563Z,14.09
2017-10-17T22:23:06.311Z,13.90
2017-10-17T22:25:32.068Z,13.87
2017-10-17T22:27:57.822Z,13.89
2017-10-17T22:30:23.563Z,13.91
2017-10-17T22:32:49.358Z,13.93
2017-10-17T22:35:15.127Z,13.92
2017-10-17T22:37:40.904Z,13.88
2017-10-17T22:40:06.712Z,13.85
2017-10-17T22:42:32.466Z,13.87
2017-10-17T22:44:58.224Z,13.86
2017-10-17T22:47:23.983Z,13.82
2017-10-17T22:49:49.759Z,13.85
2017-10-17T22:52:15.495Z,13.74
2017-10-17T22:54:41.267Z,13.78
2017-10-17T22:57:07.024Z,13.76
2017-10-17T22:59:32.782Z,13.73
2017-10-17T23:01:58.527Z,13.76
2017-10-17T23:04:25.086Z,13.71
2017-10-17T23:06:50.880Z,13.71
2017-10-17T23:09:16.661Z,13.72
2017-10-17T23:11:42.410Z,13.73
2017-10-17T23:14:08.263Z,13.65
2017-10-17T23:16:34.067Z,13.63
2017-10-17T23:19:12.367Z,13.54
2017-10-17T23:21:38.116Z,13.51
2017-10-17T23:24:03.855Z,13.54
2017-10-17T23:26:29.634Z,13.48
2017-10-17T23:28:55.381Z,13.44
2017-10-17T23:31:21.211Z,13.39
2017-10-17T23:33:46.990Z,13.37
2017-10-17T23:36:12.751Z,13.40
2017-10-17T23:38:38.531Z,13.42
2017-10-17T23:41:04.280Z,13.38
2017-10-17T23:43:30.071Z,13.13
2017-10-17T23:45:55.828Z,12.96
2017-10-17T23:48:21.594Z,12.99
2017-10-17T23:50:47.351Z,13.05
2017-10-17T23:53:13.130Z,13.02
2017-10-17T23:55:38.914Z,13.02
2017-10-17T23:58:04.662Z,12.94
